Time;durP1;ratioP1;P1;durP2;ratioP2;P2;SDS_P1;SDS_P2;PMS_P1;PMS_P2;Temp;Humidity;BMP_temperature;BMP_pressure;BME280_temperature;BME280_humidity;BME280_pressure;Samples;Min_cycle;Max_cycle;Signal;HPM_P1;HPM_P2
2023/12/25 00:01:22;;;;;;;1.92;0.43;;;11.60;99.90;;;;;;5082906;28;20101;-71
2023/12/25 00:03:48;;;;;;;2.90;0.57;;;11.60;99.90;;;;;;5080516;28;20036;-71
2023/12/25 00:06:14;;;;;;;0.57;0.38;;;11.60;99.90;;;;;;5082878;28;20024;-71
2023/12/25 00:08:40;;;;;;;2.05;0.85;;;11.60;99.90;;;;;;5082144;28;20039;-71
2023/12/25 00:11:05;;;;;;;2.58;0.47;;;11.60;99.90;;;;;;5082464;28;20040;-71
2023/12/25 00:13:31;;;;;;;4.13;0.45;;;11.60;99.90;;;;;;5079192;28;20122;-71
2023/12/25 00:15:56;;;;;;;0.80;0.40;;;11.60;99.90;;;;;;5082253;28;20166;-71
2023/12/25 00:18:23;;;;;;;0.85;0.55;;;11.60;99.90;;;;;;5082633;28;20093;-71
2023/12/25 00:20:49;;;;;;;2.67;0.68;;;11.60;99.90;;;;;;5065002;28;20039;-71
2023/12/25 00:23:14;;;;;;;3.55;0.50;;;11.60;99.90;;;;;;5079947;28;20037;-71
2023/12/25 00:25:40;;;;;;;4.20;0.68;;;11.60;99.90;;;;;;5078300;28;20035;-71
2023/12/25 00:28:06;;;;;;;2.30;0.35;;;11.60;99.90;;;;;;5077066;28;20065;-71
2023/12/25 00:30:31;;;;;;;0.80;0.35;;;11.60;99.90;;;;;;5082367;28;20028;-71
2023/12/25 00:32:57;;;;;;;3.35;0.50;;;11.60;99.90;;;;;;5078191;28;20035;-71
2023/12/25 00:35:23;;;;;;;0.32;0.32;;;11.60;99.90;;;;;;5067228;28;20047;-71
2023/12/25 00:37:48;;;;;;;2.17;0.30;;;11.60;99.90;;;;;;5064895;28;20068;-71
2023/12/25 00:40:14;;;;;;;5.25;0.85;;;11.60;99.90;;;;;;5082848;28;20406;-71
2023/12/25 00:42:39;;;;;;;0.17;0.13;;;11.60;99.90;;;;;;5079566;28;20038;-71
2023/12/25 00:45:05;;;;;;;0.50;0.20;;;11.50;99.90;;;;;;5060778;28;20493;-71
2023/12/25 00:47:31;;;;;;;1.05;0.22;;;11.50;99.90;;;;;;5082313;28;20119;-70
2023/12/25 00:49:56;;;;;;;2.30;0.30;;;11.50;99.90;;;;;;5064965;28;20127;-71
2023/12/25 00:52:22;;;;;;;0.40;0.20;;;11.50;99.90;;;;;;5079420;28;20097;-71
2023/12/25 00:54:48;;;;;;;2.00;0.32;;;11.50;99.90;;;;;;5080419;28;20040;-71
2023/12/25 00:57:14;;;;;;;0.75;0.30;;;11.50;99.90;;;;;;5062899;28;20028;-71
2023/12/25 00:59:40;;;;;;;2.75;0.43;;;11.50;99.90;;;;;;5085262;28;20085;-70
2023/12/25 01:02:05;;;;;;;0.85;0.40;;;11.50;99.90;;;;;;5082334;28;20028;-71
2023/12/25 01:04:31;;;;;;;0.60;0.40;;;11.50;99.90;;;;;;5085316;28;20032;-70
2023/12/25 01:06:56;;;;;;;2.15;0.40;;;11.40;99.90;;;;;;5080395;28;20044;-71
2023/12/25 01:09:22;;;;;;;1.08;0.25;;;11.40;99.90;;;;;;5082782;28;20451;-71
2023/12/25 01:11:48;;;;;;;1.02;0.60;;;11.40;99.90;;;;;;5084865;28;20079;-71
2023/12/25 01:14:14;;;;;;;0.30;0.30;;;11.40;99.90;;;;;;5068933;28;20891;-71
2023/12/25 01:16:40;;;;;;;2.03;0.85;;;11.40;99.90;;;;;;5085465;28;20667;-71
2023/12/25 01:19:05;;;;;;;0.98;0.63;;;11.40;99.90;;;;;;5067162;28;20043;-71
2023/12/25 01:21:34;;;;;;;1.98;0.45;;;11.30;99.90;;;;;;5082622;28;20546;-71
2023/12/25 01:24:00;;;;;;;0.25;0.10;;;11.30;99.90;;;;;;5064578;28;20039;-71
2023/12/25 01:26:26;;;;;;;2.20;0.45;;;11.30;99.90;;;;;;5069183;28;20042;-70
2023/12/25 01:28:52;;;;;;;2.75;0.17;;;11.20;99.90;;;;;;5085269;28;20044;-70
2023/12/25 01:31:17;;;;;;;1.70;0.20;;;11.20;99.90;;;;;;5082572;28;20043;-71
2023/12/25 01:33:43;;;;;;;2.58;0.30;;;11.20;99.90;;;;;;5066231;28;20040;-71
2023/12/25 01:36:09;;;;;;;1.70;0.50;;;11.20;99.90;;;;;;5066737;28;20036;-71
2023/12/25 01:38:35;;;;;;;0.47;0.30;;;11.20;99.90;;;;;;5066564;28;20526;-70
2023/12/25 01:41:00;;;;;;;0.57;0.32;;;11.20;99.90;;;;;;5082184;28;20070;-71
2023/12/25 01:43:26;;;;;;;2.47;0.65;;;11.20;99.90;;;;;;5083807;28;20198;-70
2023/12/25 01:45:52;;;;;;;1.17;0.40;;;11.20;99.90;;;;;;5085590;28;20044;-70
2023/12/25 01:48:17;;;;;;;3.65;0.30;;;11.20;99.90;;;;;;5080458;28;20409;-69
2023/12/25 01:50:43;;;;;;;1.13;0.30;;;11.10;99.90;;;;;;5080647;28;20039;-70
2023/12/25 01:53:09;;;;;;;0.20;0.17;;;11.10;99.90;;;;;;5084873;28;20043;-70
2023/12/25 01:55:36;;;;;;;0.22;0.20;;;11.20;99.90;;;;;;5063431;28;20351;-69
2023/12/25 01:58:02;;;;;;;4.20;0.57;;;11.20;99.90;;;;;;5080866;28;20482;-70
2023/12/25 02:00:27;;;;;;;0.80;0.35;;;11.20;99.90;;;;;;5083112;28;20036;-70
2023/12/25 02:02:53;;;;;;;0.85;0.52;;;11.20;99.90;;;;;;5082703;28;20082;-70
2023/12/25 02:05:19;;;;;;;2.22;0.30;;;11.20;99.90;;;;;;5075239;28;21379;-71
2023/12/25 02:07:46;;;;;;;0.52;0.30;;;11.10;99.90;;;;;;5081787;28;20036;-71
2023/12/25 02:10:28;;;;;;;2.03;0.30;;;11.10;99.90;;;;;;5077295;28;20119;-70
2023/12/25 02:12:54;;;;;;;0.32;0.20;;;11.10;99.90;;;;;;5081848;28;20067;-70
2023/12/25 02:15:20;;;;;;;0.63;0.20;;;11.10;99.90;;;;;;5083925;28;20066;-71
2023/12/25 02:17:46;;;;;;;1.67;0.30;;;11.10;99.90;;;;;;5060865;28;20036;-71
2023/12/25 02:20:13;;;;;;;0.40;0.25;;;11.10;99.90;;;;;;5084630;28;20040;-71
2023/12/25 02:22:40;;;;;;;0.75;0.20;;;11.10;99.90;;;;;;5081608;28;20051;-70
2023/12/25 02:25:31;;;;;;;0.43;0.22;;;11.10;99.90;;;;;;5060540;28;20036;-70
2023/12/25 02:27:57;;;;;;;1.55;0.20;;;11.10;99.90;;;;;;5059556;28;20404;-71
2023/12/25 02:30:23;;;;;;;0.98;0.22;;;11.10;99.90;;;;;;5083937;28;20032;-70
2023/12/25 02:32:49;;;;;;;0.55;0.20;;;11.10;99.90;;;;;;5083742;28;20039;-70
2023/12/25 02:35:14;;;;;;;1.58;0.55;;;11.10;99.90;;;;;;5081034;28;20567;-70
2023/12/25 02:37:40;;;;;;;2.22;0.40;;;11.10;99.90;;;;;;5081919;28;20123;-70
2023/12/25 02:40:06;;;;;;;1.83;0.20;;;11.10;99.90;;;;;;5077870;28;20402;-71
2023/12/25 02:42:32;;;;;;;0.20;0.20;;;11.10;99.90;;;;;;5082025;28;20044;-70
2023/12/25 02:44:57;;;;;;;0.80;0.20;;;11.10;99.90;;;;;;5080824;28;20040;-70
2023/12/25 02:47:23;;;;;;;1.35;0.10;;;11.10;99.90;;;;;;5083048;28;20044;-70
2023/12/25 02:49:49;;;;;;;0.40;0.20;;;11.10;99.90;;;;;;5081284;28;20039;-70
2023/12/25 02:52:14;;;;;;;0.43;0.30;;;11.10;99.90;;;;;;5078027;28;20159;-70
2023/12/25 02:54:40;;;;;;;0.45;0.13;;;11.10;99.90;;;;;;5083169;28;20036;-70
2023/12/25 02:57:06;;;;;;;0.32;0.20;;;11.10;99.90;;;;;;5079954;28;20494;-70
2023/12/25 02:59:31;;;;;;;0.65;0.28;;;11.10;99.90;;;;;;5083177;28;20036;-70
2023/12/25 03:01:57;;;;;;;0.47;0.28;;;11.00;99.90;;;;;;5080082;28;20036;-70
2023/12/25 03:04:23;;;;;;;0.47;0.38;;;11.00;99.90;;;;;;5064792;28;20027;-70
2023/12/25 03:06:49;;;;;;;1.52;0.20;;;11.00;99.90;;;;;;5083627;28;20525;-70
2023/12/25 03:09:14;;;;;;;0.10;0.10;;;11.00;99.90;;;;;;5061124;28;20501;-70
2023/12/25 03:11:40;;;;;;;2.60;0.10;;;11.00;99.90;;;;;;5097280;27;20047;-71
2023/12/25 03:14:05;;;;;;;0.45;0.20;;;11.00;99.90;;;;;;5081591;28;20170;-71
2023/12/25 03:16:31;;;;;;;1.42;0.50;;;11.00;99.90;;;;;;5083428;28;20040;-71
2023/12/25 03:18:57;;;;;;;3.63;0.13;;;11.10;99.90;;;;;;5065527;28;20044;-70
2023/12/25 03:21:22;;;;;;;3.40;0.30;;;11.00;99.90;;;;;;5101248;27;20047;-71
2023/12/25 03:23:48;;;;;;;0.47;0.35;;;11.10;99.90;;;;;;5065452;28;20047;-70
2023/12/25 03:26:13;;;;;;;0.25;0.20;;;11.00;99.90;;;;;;5081239;28;20032;-70
2023/12/25 03:28:39;;;;;;;3.30;0.22;;;11.00;99.90;;;;;;5081392;28;20078;-71
2023/12/25 03:31:05;;;;;;;0.35;0.20;;;11.00;99.90;;;;;;5065810;28;20043;-70
2023/12/25 03:33:30;;;;;;;0.35;0.20;;;11.00;99.90;;;;;;5083286;28;20120;-71
2023/12/25 03:35:56;;;;;;;0.35;0.15;;;11.00;99.90;;;;;;5061860;28;20123;-71
2023/12/25 03:38:22;;;;;;;0.85;0.55;;;11.00;99.90;;;;;;5081770;28;20028;-71
2023/12/25 03:40:48;;;;;;;1.70;0.30;;;11.00;99.90;;;;;;5084813;28;20610;-71
2023/12/25 03:43:13;;;;;;;0.43;0.15;;;11.00;99.90;;;;;;5060100;28;20068;-70
2023/12/25 03:45:40;;;;;;;0.47;0.10;;;11.00;99.90;;;;;;5083486;28;20042;-70
2023/12/25 03:48:05;;;;;;;1.67;0.40;;;11.00;99.90;;;;;;5083354;28;20036;-70
2023/12/25 03:50:31;;;;;;;1.63;0.15;;;11.00;99.90;;;;;;5079142;28;20050;-70
2023/12/25 03:52:57;;;;;;;1.83;0.20;;;11.00;99.90;;;;;;5064592;28;20101;-71
2023/12/25 03:55:22;;;;;;;0.40;0.10;;;10.90;99.90;;;;;;5058802;28;20039;-71
2023/12/25 03:57:48;;;;;;;0.55;0.20;;;10.90;99.90;;;;;;5079069;28;20036;-71
2023/12/25 04:00:14;;;;;;;0.57;0.22;;;10.90;99.90;;;;;;5078777;28;20459;-70
2023/12/25 04:02:40;;;;;;;0.38;0.10;;;10.90;99.90;;;;;;5080710;28;20786;-71
2023/12/25 04:05:06;;;;;;;10.13;0.73;;;10.90;99.90;;;;;;5098856;27;20040;-71
2023/12/25 04:07:32;;;;;;;0.55;0.22;;;10.90;99.90;;;;;;5081123;28;20032;-70
2023/12/25 04:09:58;;;;;;;1.20;0.20;;;10.90;99.90;;;;;;5078921;28;20037;-71
2023/12/25 04:12:24;;;;;;;0.00;0.00;;;10.90;99.90;;;;;;5081959;28;20036;-71
2023/12/25 04:14:50;;;;;;;0.57;0.22;;;11.00;99.90;;;;;;5082328;28;20441;-71
2023/12/25 04:17:16;;;;;;;0.10;0.10;;;10.90;99.90;;;;;;5062729;28;20514;-70
2023/12/25 04:19:42;;;;;;;0.85;0.20;;;10.90;99.90;;;;;;5063025;28;20553;-71
2023/12/25 04:22:08;;;;;;;0.32;0.20;;;10.90;99.90;;;;;;5082012;28;20098;-70
2023/12/25 04:24:33;;;;;;;2.85;0.40;;;10.90;99.90;;;;;;5080461;28;20117;-71
2023/12/25 04:26:59;;;;;;;0.47;0.20;;;10.90;99.90;;;;;;5078874;28;20300;-71
2023/12/25 04:29:24;;;;;;;1.23;0.43;;;10.90;99.90;;;;;;5080664;28;20097;-71
2023/12/25 04:31:50;;;;;;;0.40;0.20;;;10.90;99.90;;;;;;5062503;28;20524;-71
2023/12/25 04:34:16;;;;;;;3.05;0.32;;;10.90;99.90;;;;;;5065380;28;20081;-71
2023/12/25 04:36:42;;;;;;;0.10;0.10;;;10.90;99.90;;;;;;5080982;28;20036;-71
2023/12/25 04:39:07;;;;;;;0.30;0.20;;;10.90;99.90;;;;;;5083398;28;20111;-72
2023/12/25 04:41:33;;;;;;;0.50;0.40;;;10.90;99.90;;;;;;5058274;28;20063;-71
2023/12/25 04:43:59;;;;;;;0.90;0.20;;;10.90;99.90;;;;;;5080986;28;20119;-71
2023/12/25 04:46:24;;;;;;;0.10;0.10;;;10.90;99.90;;;;;;5075981;28;20677;-71
2023/12/25 04:48:50;;;;;;;1.52;0.30;;;10.90;99.90;;;;;;5081277;28;20043;-71
2023/12/25 04:51:15;;;;;;;1.02;0.73;;;10.80;99.90;;;;;;5081335;28;20087;-71
2023/12/25 04:53:41;;;;;;;1.42;0.30;;;10.90;99.90;;;;;;5079873;28;20106;-71
2023/12/25 04:56:10;;;;;;;1.58;0.13;;;10.90;99.90;;;;;;5060956;28;20036;-70
2023/12/25 04:58:36;;;;;;;1.75;0.20;;;10.90;99.90;;;;;;5078148;28;20047;-70
2023/12/25 05:01:06;;;;;;;0.80;0.30;;;10.90;99.90;;;;;;5061458;28;20040;-71
2023/12/25 05:03:31;;;;;;;3.63;0.40;;;10.90;99.90;;;;;;5081609;28;20156;-71
2023/12/25 05:05:57;;;;;;;1.17;0.40;;;10.90;99.90;;;;;;5078195;28;20032;-71
2023/12/25 05:08:23;;;;;;;1.98;0.68;;;10.90;99.90;;;;;;5080794;28;20166;-71
2023/12/25 05:10:49;;;;;;;1.20;0.50;;;10.90;99.90;;;;;;5078297;28;20070;-71
2023/12/25 05:13:14;;;;;;;1.10;0.20;;;10.90;99.90;;;;;;5081332;28;20036;-71
2023/12/25 05:15:40;;;;;;;1.45;0.20;;;10.90;99.90;;;;;;5082272;28;20051;-71
2023/12/25 05:18:06;;;;;;;1.25;0.32;;;10.90;99.90;;;;;;5081457;28;20047;-71
2023/12/25 05:20:32;;;;;;;1.20;0.17;;;10.90;99.90;;;;;;5065461;28;20047;-70
2023/12/25 05:22:57;;;;;;;0.20;0.05;;;10.90;99.90;;;;;;5061098;28;20040;-70
2023/12/25 05:25:23;;;;;;;0.98;0.22;;;10.90;99.90;;;;;;5078725;28;20661;-71
2023/12/25 05:27:49;;;;;;;0.82;0.20;;;10.90;99.90;;;;;;5080393;28;20496;-71
2023/12/25 05:30:14;;;;;;;0.20;0.10;;;10.90;99.90;;;;;;5081275;28;20039;-70
2023/12/25 05:32:40;;;;;;;1.05;0.43;;;10.90;99.90;;;;;;5079973;28;20043;-71
2023/12/25 05:35:06;;;;;;;0.47;0.30;;;10.90;99.90;;;;;;5063192;28;20051;-71
2023/12/25 05:37:32;;;;;;;1.02;0.17;;;10.90;99.90;;;;;;5061603;28;20047;-71
2023/12/25 05:39:59;;;;;;;4.13;0.38;;;10.90;99.90;;;;;;5081959;28;20044;-70
2023/12/25 05:42:24;;;;;;;0.65;0.10;;;10.90;99.90;;;;;;5064511;28;20056;-71
2023/12/25 05:44:50;;;;;;;1.65;0.20;;;10.90;99.90;;;;;;5079999;28;20135;-71
2023/12/25 05:47:16;;;;;;;1.02;0.03;;;10.90;99.90;;;;;;5065495;28;20466;-71
2023/12/25 05:49:41;;;;;;;1.23;0.28;;;10.90;99.90;;;;;;5084611;28;20039;-71
2023/12/25 05:52:07;;;;;;;0.65;0.20;;;10.90;99.90;;;;;;5067610;28;20032;-70
2023/12/25 05:54:33;;;;;;;0.10;0.10;;;10.90;99.90;;;;;;5086146;28;20036;-71
2023/12/25 05:56:59;;;;;;;0.73;0.30;;;10.90;99.90;;;;;;5081753;28;20158;-71
2023/12/25 05:59:24;;;;;;;0.10;0.10;;;10.90;99.90;;;;;;5080927;28;20039;-71
2023/12/25 06:01:50;;;;;;;0.93;0.28;;;10.90;99.90;;;;;;5083953;28;20028;-70
2023/12/25 06:04:16;;;;;;;0.20;0.20;;;10.90;99.90;;;;;;5085531;28;20032;-71
2023/12/25 06:06:42;;;;;;;0.95;0.38;;;10.80;99.90;;;;;;5084530;28;20032;-70
2023/12/25 06:09:10;;;;;;;0.22;0.10;;;10.80;99.90;;;;;;5080319;28;20074;-71
2023/12/25 06:11:36;;;;;;;3.00;0.55;;;10.80;99.90;;;;;;5065810;28;20597;-70
2023/12/25 06:14:03;;;;;;;0.75;0.28;;;10.80;99.90;;;;;;5082821;28;20044;-71
2023/12/25 06:16:29;;;;;;;2.85;0.30;;;10.80;99.90;;;;;;5085012;28;20097;-70
2023/12/25 06:18:54;;;;;;;1.60;0.30;;;10.80;99.90;;;;;;5083110;28;20436;-71
2023/12/25 06:21:20;;;;;;;3.85;0.68;;;10.70;99.90;;;;;;5099966;27;20033;-70
2023/12/25 06:23:45;;;;;;;0.52;0.15;;;10.70;99.90;;;;;;5083761;28;20510;-70
2023/12/25 06:26:11;;;;;;;1.95;0.25;;;10.70;99.90;;;;;;5062860;28;20040;-70
2023/12/25 06:28:37;;;;;;;1.92;0.57;;;10.70;99.90;;;;;;5079153;28;20040;-71
2023/12/25 06:31:02;;;;;;;0.93;0.25;;;10.60;99.90;;;;;;5082968;28;20070;-71
2023/12/25 06:33:28;;;;;;;0.10;0.10;;;10.60;99.90;;;;;;5081144;28;20028;-70
2023/12/25 06:35:54;;;;;;;4.18;0.82;;;10.60;99.90;;;;;;5067521;28;20060;-70
2023/12/25 06:38:19;;;;;;;0.20;0.10;;;10.60;99.90;;;;;;5065885;28;20039;-70
2023/12/25 06:40:45;;;;;;;1.65;0.30;;;10.60;99.90;;;;;;5084249;28;20069;-71
2023/12/25 06:43:10;;;;;;;0.73;0.15;;;10.50;99.90;;;;;;5065186;28;20046;-70
2023/12/25 06:45:36;;;;;;;3.33;0.20;;;10.50;99.90;;;;;;5081971;28;20061;-70
2023/12/25 06:48:02;;;;;;;0.10;0.10;;;10.50;99.90;;;;;;5078664;28;20130;-70
2023/12/25 06:50:28;;;;;;;0.80;0.38;;;10.50;99.90;;;;;;5081760;28;20067;-71
2023/12/25 06:52:54;;;;;;;2.30;0.38;;;10.50;99.90;;;;;;5080997;28;20063;-70
2023/12/25 06:55:19;;;;;;;4.68;0.63;;;10.50;99.90;;;;;;5076013;28;20063;-70
2023/12/25 06:57:45;;;;;;;0.75;0.57;;;10.40;99.90;;;;;;5077876;28;20443;-70
2023/12/25 07:00:11;;;;;;;3.40;0.28;;;10.50;99.90;;;;;;5063511;28;20037;-70
2023/12/25 07:02:38;;;;;;;0.70;0.45;;;10.40;99.90;;;;;;5053172;28;20528;-70
2023/12/25 07:05:07;;;;;;;0.43;0.32;;;10.40;99.90;;;;;;5068539;28;20047;-70
2023/12/25 07:07:33;;;;;;;0.77;0.22;;;10.40;99.90;;;;;;5061312;28;20085;-71
2023/12/25 07:09:58;;;;;;;0.43;0.32;;;10.40;99.90;;;;;;5075850;28;20040;-71
2023/12/25 07:12:24;;;;;;;2.38;0.35;;;10.40;99.90;;;;;;5078535;28;20063;-71
2023/12/25 07:14:53;;;;;;;2.45;0.60;;;10.40;99.90;;;;;;5062252;28;20035;-71
2023/12/25 07:17:18;;;;;;;1.67;0.50;;;10.40;99.90;;;;;;5080909;28;20067;-70
2023/12/25 07:19:44;;;;;;;2.20;0.15;;;10.40;99.90;;;;;;5083651;28;20125;-71
2023/12/25 07:22:11;;;;;;;1.35;0.20;;;10.30;99.90;;;;;;5083639;28;20064;-71
2023/12/25 07:24:37;;;;;;;1.38;0.35;;;10.30;99.90;;;;;;5077532;28;20085;-70
2023/12/25 07:27:03;;;;;;;0.40;0.15;;;10.30;99.90;;;;;;5079924;28;20424;-71
2023/12/25 07:29:30;;;;;;;1.48;0.32;;;10.30;99.90;;;;;;5082286;28;20044;-70
2023/12/25 07:31:56;;;;;;;2.50;0.22;;;10.30;99.90;;;;;;5081163;28;20093;-70
2023/12/25 07:34:22;;;;;;;5.43;0.60;;;10.20;99.90;;;;;;5064879;28;20032;-70
2023/12/25 07:36:48;;;;;;;0.52;0.20;;;10.20;99.90;;;;;;5080181;28;20386;-70
2023/12/25 07:39:14;;;;;;;0.30;0.22;;;10.20;99.90;;;;;;5066636;28;20047;-70
2023/12/25 07:41:45;;;;;;;1.67;0.50;;;10.20;99.90;;;;;;5082234;28;20514;-71
2023/12/25 07:44:17;;;;;;;3.03;0.20;;;10.20;99.90;;;;;;5082973;28;20040;-70
2023/12/25 07:46:43;;;;;;;0.70;0.32;;;10.20;99.90;;;;;;5081284;28;20040;-71
2023/12/25 07:49:08;;;;;;;0.95;0.22;;;10.20;99.90;;;;;;5067109;28;20065;-71
2023/12/25 07:51:34;;;;;;;0.90;0.20;;;10.10;99.90;;;;;;5076578;28;20059;-70
2023/12/25 07:54:00;;;;;;;1.23;0.20;;;10.10;99.90;;;;;;5061737;28;20047;-70
2023/12/25 07:56:26;;;;;;;0.28;0.15;;;10.10;99.90;;;;;;5079304;28;20162;-70
2023/12/25 07:58:51;;;;;;;2.60;0.40;;;10.10;99.90;;;;;;5060823;28;20058;-70
2023/12/25 08:01:22;;;;;;;3.33;0.25;;;10.10;99.90;;;;;;5083528;28;20040;-70
2023/12/25 08:03:49;;;;;;;0.73;0.25;;;10.10;99.90;;;;;;5078452;28;20039;-70
2023/12/25 08:06:15;;;;;;;1.15;0.40;;;10.10;99.90;;;;;;5078398;28;20048;-71
2023/12/25 08:08:40;;;;;;;0.73;0.22;;;10.10;99.90;;;;;;5078995;28;20454;-72
2023/12/25 08:11:06;;;;;;;1.40;0.43;;;10.10;99.90;;;;;;5058751;28;20039;-70
2023/12/25 08:13:32;;;;;;;0.08;0.00;;;10.10;99.90;;;;;;5080182;28;20468;-71
2023/12/25 08:15:57;;;;;;;2.20;0.17;;;10.10;99.90;;;;;;5079903;28;20047;-71
2023/12/25 08:18:23;;;;;;;2.20;0.40;;;10.10;99.90;;;;;;5082148;28;20043;-70
2023/12/25 08:20:49;;;;;;;3.13;0.20;;;10.10;99.90;;;;;;5059232;28;20113;-71
2023/12/25 08:23:14;;;;;;;0.17;0.10;;;10.10;99.90;;;;;;5078460;28;20043;-71
2023/12/25 08:25:41;;;;;;;0.10;0.10;;;10.10;99.90;;;;;;5081541;28;20076;-71
2023/12/25 08:28:06;;;;;;;1.17;0.63;;;10.10;99.90;;;;;;5077435;28;20489;-71
2023/12/25 08:30:32;;;;;;;1.38;0.38;;;10.10;99.90;;;;;;5053558;28;20032;-71
2023/12/25 08:32:58;;;;;;;1.67;0.40;;;10.10;99.90;;;;;;5078893;28;20044;-71
2023/12/25 08:35:24;;;;;;;2.42;0.20;;;10.10;99.90;;;;;;5057534;28;20040;-71
2023/12/25 08:37:50;;;;;;;1.13;0.25;;;10.00;99.90;;;;;;5079537;28;20040;-71
2023/12/25 08:40:15;;;;;;;0.30;0.10;;;10.00;99.90;;;;;;5080246;28;20296;-71
2023/12/25 08:42:41;;;;;;;3.10;0.30;;;10.00;99.90;;;;;;5080245;28;20035;-71
2023/12/25 08:45:07;;;;;;;2.65;0.30;;;10.00;99.90;;;;;;5063558;28;20067;-71
2023/12/25 08:47:33;;;;;;;1.45;0.20;;;10.00;99.90;;;;;;5079024;28;20059;-71
2023/12/25 08:49:59;;;;;;;1.33;0.38;;;10.00;99.90;;;;;;5061526;28;20355;-71
2023/12/25 08:52:24;;;;;;;5.18;0.60;;;10.00;99.90;;;;;;5077937;28;20191;-71
2023/12/25 08:54:50;;;;;;;3.90;0.35;;;10.00;99.90;;;;;;5064578;28;20027;-70
2023/12/25 08:57:16;;;;;;;3.03;0.22;;;10.00;99.90;;;;;;5075161;28;20048;-71
2023/12/25 08:59:42;;;;;;;0.22;0.13;;;10.00;99.90;;;;;;5079310;28;20039;-71
2023/12/25 09:02:08;;;;;;;1.95;0.40;;;10.00;99.90;;;;;;5074767;28;20125;-71
2023/12/25 09:04:35;;;;;;;0.63;0.20;;;10.00;99.90;;;;;;5077412;28;20562;-71
2023/12/25 09:07:00;;;;;;;1.75;0.43;;;10.00;99.90;;;;;;5075044;28;20558;-70
2023/12/25 09:09:26;;;;;;;2.63;0.77;;;10.10;99.90;;;;;;5080395;28;20044;-71
2023/12/25 09:11:52;;;;;;;0.85;0.22;;;10.10;99.90;;;;;;5074724;28;20128;-71
2023/12/25 09:14:17;;;;;;;2.63;0.57;;;10.10;99.90;;;;;;5080293;28;20413;-71
2023/12/25 09:16:43;;;;;;;1.00;0.50;;;10.00;99.90;;;;;;5079236;28;20494;-71
2023/12/25 09:19:09;;;;;;;0.65;0.35;;;10.00;99.90;;;;;;5062123;28;20513;-71
2023/12/25 09:21:38;;;;;;;0.93;0.45;;;10.00;99.90;;;;;;5066384;28;20056;-70
2023/12/25 09:24:05;;;;;;;0.90;0.28;;;10.00;99.90;;;;;;5081588;28;20036;-71
2023/12/25 09:26:30;;;;;;;8.68;0.90;;;10.00;99.90;;;;;;5060542;28;20401;-70
2023/12/25 09:28:56;;;;;;;0.50;0.28;;;10.00;99.90;;;;;;5065681;28;20036;-71
2023/12/25 09:31:22;;;;;;;0.88;0.60;;;10.00;99.90;;;;;;5064079;28;20032;-71
2023/12/25 09:33:48;;;;;;;0.63;0.22;;;10.00;99.90;;;;;;5063585;28;20036;-70
2023/12/25 09:36:14;;;;;;;3.63;0.50;;;10.00;99.90;;;;;;5082041;28;20044;-72
2023/12/25 09:38:40;;;;;;;0.57;0.30;;;10.00;99.90;;;;;;5085106;28;20050;-72
2023/12/25 09:41:16;;;;;;;2.70;0.40;;;10.00;99.90;;;;;;5082422;28;20093;-71
2023/12/25 09:43:45;;;;;;;0.90;0.20;;;10.00;99.90;;;;;;5057375;28;20032;-71
2023/12/25 09:46:11;;;;;;;1.75;0.63;;;10.00;99.90;;;;;;5083930;28;20046;-72
2023/12/25 09:48:38;;;;;;;1.33;0.25;;;10.00;99.90;;;;;;5084251;28;20044;-71
2023/12/25 09:51:06;;;;;;;0.52;0.20;;;10.00;99.90;;;;;;5064705;28;20044;-71
2023/12/25 09:53:31;;;;;;;1.52;0.40;;;10.00;99.90;;;;;;5083486;28;20167;-71
2023/12/25 09:55:59;;;;;;;0.75;0.20;;;10.10;99.90;;;;;;5077393;28;20405;-71
2023/12/25 09:58:27;;;;;;;1.67;0.30;;;10.10;99.90;;;;;;5087937;28;20125;-71
2023/12/25 10:00:55;;;;;;;2.10;0.40;;;10.10;99.90;;;;;;5069075;28;20043;-71
2023/12/25 10:03:21;;;;;;;0.70;0.28;;;10.20;99.90;;;;;;5079905;28;20033;-71
2023/12/25 10:05:47;;;;;;;0.93;0.25;;;10.20;99.90;;;;;;5083716;28;20379;-71
2023/12/25 10:08:12;;;;;;;1.80;0.20;;;10.20;99.90;;;;;;5073382;28;20047;-71
2023/12/25 10:10:38;;;;;;;1.48;0.85;;;10.20;99.90;;;;;;5090638;28;20048;-71
2023/12/25 10:13:04;;;;;;;2.08;0.40;;;10.20;99.90;;;;;;5072579;28;20052;-71
2023/12/25 10:15:30;;;;;;;0.45;0.10;;;10.30;99.90;;;;;;5083082;28;21115;-72
2023/12/25 10:18:06;;;;;;;3.53;0.57;;;10.30;99.90;;;;;;5073468;28;20192;-71
2023/12/25 10:20:32;;;;;;;3.70;0.60;;;10.20;99.90;;;;;;5072735;28;20032;-71
2023/12/25 10:22:59;;;;;;;2.50;0.57;;;10.20;99.90;;;;;;5088699;28;20054;-71
2023/12/25 10:25:27;;;;;;;1.13;0.20;;;10.30;99.90;;;;;;5087628;28;20520;-71
2023/12/25 10:27:53;;;;;;;2.47;0.38;;;10.30;99.90;;;;;;5088684;28;20036;-71
2023/12/25 10:30:19;;;;;;;2.08;0.60;;;10.30;99.90;;;;;;5071703;28;20090;-71
2023/12/25 10:32:47;;;;;;;2.08;0.32;;;10.30;99.90;;;;;;5089965;28;20070;-71
2023/12/25 10:35:15;;;;;;;0.50;0.20;;;10.30;99.90;;;;;;5088934;28;20052;-71
2023/12/25 10:37:42;;;;;;;0.60;0.20;;;10.30;99.90;;;;;;5088211;28;20036;-72
2023/12/25 10:40:27;;;;;;;0.63;0.30;;;10.30;99.90;;;;;;5073121;28;20069;-71
2023/12/25 10:42:56;;;;;;;3.65;0.40;;;10.30;99.90;;;;;;5054812;28;20039;-71
2023/12/25 10:45:23;;;;;;;0.60;0.30;;;10.30;99.90;;;;;;5087929;28;20028;-71
2023/12/25 10:47:51;;;;;;;1.05;0.32;;;10.30;99.90;;;;;;5089763;28;20172;-71
2023/12/25 10:50:22;;;;;;;1.73;0.20;;;10.30;99.90;;;;;;5082410;28;20074;-71
2023/12/25 10:52:52;;;;;;;1.45;0.65;;;10.20;99.90;;;;;;5071204;28;20121;-71
2023/12/25 10:55:43;;;;;;;4.80;0.40;;;10.20;99.90;;;;;;5090085;28;20048;-71
2023/12/25 10:58:12;;;;;;;2.28;0.35;;;10.30;99.90;;;;;;5081373;28;20051;-71
2023/12/25 11:00:46;;;;;;;0.40;0.10;;;10.20;99.90;;;;;;5071049;28;20028;-71
2023/12/25 11:03:15;;;;;;;1.23;0.40;;;10.30;99.90;;;;;;5089047;28;20366;-71
2023/12/25 11:05:41;;;;;;;0.45;0.15;;;10.30;99.90;;;;;;5065717;28;20044;-71
2023/12/25 11:08:08;;;;;;;1.95;0.57;;;10.20;99.90;;;;;;5089216;28;20489;-71
2023/12/25 11:10:35;;;;;;;3.10;0.28;;;10.30;99.90;;;;;;5072744;28;20656;-71
2023/12/25 11:13:01;;;;;;;1.15;0.20;;;10.20;99.90;;;;;;5087913;28;20048;-71
2023/12/25 11:15:27;;;;;;;1.02;0.30;;;10.20;99.90;;;;;;5088891;28;20044;-72
2023/12/25 11:17:53;;;;;;;0.63;0.28;;;10.30;99.90;;;;;;5071842;28;20042;-71
2023/12/25 11:20:19;;;;;;;3.95;0.32;;;10.30;99.90;;;;;;5087643;28;20071;-71
2023/12/25 11:22:44;;;;;;;1.30;0.20;;;10.30;99.90;;;;;;5084560;28;20060;-71
2023/12/25 11:25:20;;;;;;;0.68;0.32;;;10.30;99.90;;;;;;5086088;28;20035;-71
2023/12/25 11:27:53;;;;;;;;;;;10.30;99.90;;;;;;5071660;28;20036;-71
2023/12/25 11:30:20;;;;;;;0.77;0.57;;;10.20;99.90;;;;;;5085692;28;19916;-72
2023/12/25 11:32:49;;;;;;;0.32;0.20;;;10.20;99.90;;;;;;5070700;28;20043;-71
2023/12/25 11:35:17;;;;;;;2.28;0.30;;;10.20;99.90;;;;;;5088814;28;20074;-72
2023/12/25 11:37:42;;;;;;;0.93;0.45;;;10.20;99.90;;;;;;5088487;28;20132;-71
2023/12/25 11:40:08;;;;;;;4.53;0.35;;;10.20;99.90;;;;;;5067845;28;20493;-71
2023/12/25 11:42:36;;;;;;;0.50;0.10;;;10.20;99.90;;;;;;5068661;28;20043;-72
2023/12/25 11:45:07;;;;;;;0.40;0.20;;;10.20;99.90;;;;;;5071038;28;20040;-71
2023/12/25 11:47:47;;;;;;;2.38;0.52;;;10.20;99.90;;;;;;5071666;28;20413;-71
2023/12/25 11:50:14;;;;;;;0.45;0.20;;;10.20;99.90;;;;;;5088711;28;20062;-71
2023/12/25 11:52:44;;;;;;;2.33;0.30;;;10.20;99.90;;;;;;5071438;28;20044;-71
2023/12/25 11:55:13;;;;;;;1.42;0.35;;;10.20;99.90;;;;;;5067237;28;20097;-71
2023/12/25 11:57:44;;;;;;;0.70;0.47;;;10.20;99.90;;;;;;5078232;28;20044;-71
2023/12/25 12:00:23;;;;;;;0.30;0.20;;;10.20;99.90;;;;;;5062902;28;20031;-71
2023/12/25 12:02:49;;;;;;;2.30;0.20;;;10.20;99.90;;;;;;5087278;28;20047;-71
2023/12/25 12:05:16;;;;;;;0.80;0.30;;;10.20;99.90;;;;;;5087780;28;20039;-71
2023/12/25 12:07:42;;;;;;;1.30;0.35;;;10.20;99.90;;;;;;5087816;28;20417;-71
2023/12/25 12:10:09;;;;;;;1.42;0.32;;;10.20;99.90;;;;;;5088179;28;20040;-71
2023/12/25 12:12:36;;;;;;;1.15;0.40;;;10.30;99.90;;;;;;5080641;28;20040;-71
2023/12/25 12:15:06;;;;;;;0.63;0.20;;;10.30;99.90;;;;;;5087522;28;20123;-71
2023/12/25 12:17:38;;;;;;;0.32;0.30;;;10.30;99.90;;;;;;5088177;28;20251;-71
2023/12/25 12:20:05;;;;;;;2.20;0.28;;;10.30;99.90;;;;;;5070385;28;20083;-71
2023/12/25 12:22:32;;;;;;;0.47;0.30;;;10.30;99.90;;;;;;5084647;28;20036;-71
2023/12/25 12:25:14;;;;;;;2.55;0.28;;;10.30;99.90;;;;;;5087554;28;20111;-71
2023/12/25 12:27:40;;;;;;;3.53;0.40;;;10.30;99.90;;;;;;5085789;28;20040;-71
2023/12/25 12:30:07;;;;;;;0.95;0.30;;;10.30;99.90;;;;;;5088262;28;20084;-71
2023/12/25 12:32:35;;;;;;;1.42;0.40;;;10.20;99.90;;;;;;5071117;28;20055;-71
2023/12/25 12:35:02;;;;;;;1.15;0.50;;;10.20;99.90;;;;;;5086583;28;20111;-71
2023/12/25 12:37:29;;;;;;;0.88;0.20;;;10.20;99.90;;;;;;5082834;28;20044;-71
2023/12/25 12:40:06;;;;;;;6.25;0.40;;;10.30;99.90;;;;;;5087577;28;20132;-71
2023/12/25 12:42:35;;;;;;;2.58;0.50;;;10.20;99.90;;;;;;5083234;28;20058;-71
2023/12/25 12:45:01;;;;;;;1.60;1.10;;;10.30;99.90;;;;;;5087771;28;20105;-71